KPTT

Details ICAO KPTT
Name PRATT INDUSTRIAL
Region United States
Timezone America/Chicago (UTC-5.0)
Plans Departing 0
Arriving 4
Stats Elevation 1,952 ft / 595 m (AMSL)
Location 37.701613° -98.746868°
Runways 1
Magnetic Variation 4.461° E
Sunrise 2018-05-27 11:18:36 UTC / 2018-05-27 06:18:36 Local
Sunset 2018-05-28 01:48:38 UTC / 2018-05-27 20:48:38 Local
Advertisement - Login to hide

Runways

ID Width Length Bearing (true) Bearing (mag) Surface Threshold Offset Overrun Length
17 100 ft / 30 m 5,511 ft / 1,680 m 180.11° 175.65° Asphalt 0 ft / 0 m 0 ft / 0 m
35 100 ft / 30 m 5,511 ft / 1,680 m 0.11° 355.65° Asphalt 0 ft / 0 m 0 ft / 0 m

Map

Weather


0- 5 10 15 20 25 30 35+ Temperature / ° C

Clouds and Precipitation
Forecast for 2018-05-27 18:00 UTC. Updated 3 hours ago

Ground ~20,000 ft ~40,000 ft Winds

METAR

KPTT 271935Z AUTO 14014G21KT 10SM CLR 32/15 A2986 RMK AO2 T03240148

TAF

Not found

Frequencies

Recorded 118.72 MHz AWOS 3
Unicom 122.80 MHz CTAF/UNICOM
Warning: Do not use this data for real-world aviation or navigation. No guarantee of current accuracy is given.